createdAt,value
2017-11-18T00:02:00.071Z,4.00
2017-11-18T00:04:27.593Z,4.10
2017-11-18T00:06:55.081Z,4.20
2017-11-18T00:09:22.716Z,4.20
2017-11-18T00:11:50.249Z,4.20
2017-11-18T00:14:17.759Z,4.20
2017-11-18T00:16:45.291Z,4.30
2017-11-18T00:19:12.819Z,4.40
2017-11-18T00:21:40.345Z,4.40
2017-11-18T00:24:07.810Z,4.40
2017-11-18T00:26:35.562Z,4.40
2017-11-18T00:29:03.221Z,4.50
2017-11-18T00:31:30.783Z,4.50
2017-11-18T00:33:58.336Z,4.50
2017-11-18T00:36:25.804Z,4.50
2017-11-18T00:38:53.287Z,4.50
2017-11-18T00:41:20.806Z,4.50
2017-11-18T00:43:48.385Z,4.50
2017-11-18T00:46:15.986Z,4.40
2017-11-18T00:48:43.489Z,4.40
2017-11-18T00:51:11.031Z,4.40
2017-11-18T00:53:38.709Z,4.50
2017-11-18T00:56:06.340Z,4.40
2017-11-18T00:58:33.836Z,4.40
2017-11-18T01:01:01.376Z,4.30
2017-11-18T01:03:28.879Z,4.30
2017-11-18T01:05:56.379Z,4.30
2017-11-18T01:08:23.878Z,4.30
2017-11-18T01:10:51.454Z,4.30
2017-11-18T01:13:19.095Z,4.30
2017-11-18T01:15:46.733Z,4.30
2017-11-18T01:18:14.241Z,4.40
2017-11-18T01:20:41.780Z,4.20
2017-11-18T01:23:09.318Z,4.20
2017-11-18T01:25:37.628Z,4.20
2017-11-18T01:28:05.106Z,4.20
2017-11-18T01:30:32.719Z,4.20
2017-11-18T01:33:01.008Z,4.10
2017-11-18T01:35:28.642Z,4.10
2017-11-18T01:37:56.907Z,4.10
2017-11-18T01:40:24.475Z,4.10
2017-11-18T01:42:51.947Z,4.20
2017-11-18T01:45:20.358Z,4.10
2017-11-18T01:47:48.016Z,4.00
2017-11-18T01:50:15.582Z,4.20
2017-11-18T01:52:43.211Z,4.20
2017-11-18T01:55:10.873Z,4.10
2017-11-18T01:57:38.381Z,4.00
2017-11-18T02:00:05.878Z,3.90
2017-11-18T02:02:43.330Z,3.90
2017-11-18T02:05:10.834Z,3.90
2017-11-18T02:07:38.388Z,3.90
2017-11-18T02:10:05.886Z,3.80
2017-11-18T02:12:33.397Z,3.80
2017-11-18T02:15:00.888Z,3.80
2017-11-18T02:17:28.431Z,3.80
2017-11-18T02:19:55.965Z,3.80
2017-11-18T02:22:23.473Z,3.70
2017-11-18T02:24:50.965Z,3.70
2017-11-18T02:27:18.453Z,3.70
2017-11-18T02:29:45.951Z,3.80
2017-11-18T02:32:13.451Z,3.80
2017-11-18T02:34:40.921Z,3.80
2017-11-18T02:37:08.423Z,3.80
2017-11-18T02:39:36.078Z,3.80
2017-11-18T02:42:03.561Z,3.90
2017-11-18T02:44:31.063Z,3.90
2017-11-18T02:46:58.559Z,3.90
2017-11-18T02:49:26.215Z,3.90
2017-11-18T02:51:53.880Z,4.00
2017-11-18T02:54:21.391Z,3.90
2017-11-18T02:56:49.009Z,3.90
2017-11-18T02:59:16.501Z,3.90
2017-11-18T03:01:43.972Z,3.80
2017-11-18T03:04:11.475Z,3.80
2017-11-18T03:06:38.981Z,3.80
2017-11-18T03:09:06.593Z,3.80
2017-11-18T03:11:34.088Z,3.90
2017-11-18T03:14:01.564Z,3.90
2017-11-18T03:16:29.070Z,3.90
2017-11-18T03:18:56.567Z,3.90
2017-11-18T03:21:24.042Z,3.90
2017-11-18T03:23:51.614Z,3.90
2017-11-18T03:26:19.106Z,4.00
2017-11-18T03:28:46.606Z,4.00
2017-11-18T03:31:14.097Z,4.10
2017-11-18T03:33:41.612Z,4.10
2017-11-18T03:36:09.108Z,4.20
2017-11-18T03:38:36.616Z,4.20
2017-11-18T03:41:04.101Z,4.20
2017-11-18T03:43:31.609Z,4.30
2017-11-18T03:45:59.286Z,4.30
2017-11-18T03:48:26.853Z,4.40
2017-11-18T03:50:54.399Z,4.40
2017-11-18T03:53:21.937Z,4.40
2017-11-18T03:55:50.324Z,4.50
2017-11-18T03:58:18.592Z,4.50
2017-11-18T04:00:51.853Z,4.50
2017-11-18T04:03:19.351Z,4.50
2017-11-18T04:05:46.878Z,4.50
2017-11-18T04:08:14.371Z,4.60
2017-11-18T04:10:42.050Z,4.60
2017-11-18T04:13:09.612Z,4.70
2017-11-18T04:15:37.098Z,4.70
2017-11-18T04:18:04.731Z,4.70
2017-11-18T04:20:32.382Z,4.70
2017-11-18T04:23:00.650Z,4.70
2017-11-18T04:25:29.052Z,4.80
2017-11-18T04:27:56.560Z,4.80
2017-11-18T04:30:24.157Z,4.80
2017-11-18T04:32:52.409Z,4.80
2017-11-18T04:35:19.909Z,4.70
2017-11-18T04:37:47.401Z,4.70
2017-11-18T04:40:15.007Z,4.70
2017-11-18T04:42:43.275Z,4.70
2017-11-18T04:45:10.882Z,4.70
2017-11-18T04:47:38.426Z,4.80
2017-11-18T04:50:05.908Z,4.80
2017-11-18T04:52:33.561Z,4.80
2017-11-18T04:55:01.221Z,4.80
2017-11-18T04:57:28.867Z,4.80
2017-11-18T04:59:56.353Z,4.70
2017-11-18T05:02:23.857Z,4.70
2017-11-18T05:04:51.569Z,4.70
2017-11-18T05:07:19.051Z,4.70
2017-11-18T05:09:46.572Z,4.70
2017-11-18T05:12:14.050Z,4.70
2017-11-18T05:14:41.686Z,4.80
2017-11-18T05:17:09.193Z,4.80
2017-11-18T05:19:36.696Z,4.80
2017-11-18T05:22:04.958Z,4.70
2017-11-18T05:24:32.479Z,4.70
2017-11-18T05:27:00.189Z,4.70
2017-11-18T05:29:27.721Z,4.80
2017-11-18T05:31:55.321Z,4.70
2017-11-18T05:34:22.908Z,4.70
2017-11-18T05:36:50.439Z,4.70
2017-11-18T05:39:18.097Z,4.80
2017-11-18T05:41:45.602Z,4.80
2017-11-18T05:44:13.128Z,4.80
2017-11-18T05:46:41.438Z,4.90
2017-11-18T05:49:08.914Z,4.90
2017-11-18T05:51:36.506Z,4.80
2017-11-18T05:54:04.937Z,4.80
2017-11-18T05:56:32.598Z,4.80
2017-11-18T05:59:00.105Z,4.90
2017-11-18T06:01:28.471Z,4.90
2017-11-18T06:03:56.154Z,4.90
2017-11-18T06:06:23.666Z,4.90
2017-11-18T06:08:51.162Z,4.80
2017-11-18T06:11:19.593Z,4.80
2017-11-18T06:13:47.068Z,4.80
2017-11-18T06:16:14.672Z,4.80
2017-11-18T06:18:42.151Z,4.90
2017-11-18T06:21:09.779Z,4.80
2017-11-18T06:23:37.283Z,4.80
2017-11-18T06:26:04.798Z,4.80
2017-11-18T06:28:32.319Z,4.80
2017-11-18T06:30:59.838Z,4.80
2017-11-18T06:33:27.337Z,4.80
2017-11-18T06:35:54.830Z,4.70
2017-11-18T06:38:22.339Z,4.60
2017-11-18T06:40:49.858Z,4.50
2017-11-18T06:43:17.356Z,4.40
2017-11-18T06:45:44.973Z,4.40
2017-11-18T06:48:12.491Z,4.40
2017-11-18T06:50:39.991Z,4.40
2017-11-18T06:53:07.682Z,4.30
2017-11-18T06:55:35.161Z,4.30
2017-11-18T06:58:02.661Z,4.30
2017-11-18T07:00:31.053Z,4.20
2017-11-18T07:02:58.594Z,4.10
2017-11-18T07:05:26.098Z,4.10
2017-11-18T07:07:53.626Z,4.00
2017-11-18T07:10:22.814Z,4.10
2017-11-18T07:12:50.308Z,4.10
2017-11-18T07:15:17.938Z,4.10
2017-11-18T07:17:45.434Z,4.10
2017-11-18T07:20:12.938Z,4.00
2017-11-18T07:22:40.445Z,4.00
2017-11-18T07:25:08.106Z,4.10
2017-11-18T07:27:35.634Z,4.10
2017-11-18T07:30:03.122Z,4.30
2017-11-18T07:32:30.710Z,4.40
2017-11-18T07:34:58.339Z,4.60
2017-11-18T07:37:25.897Z,4.80
2017-11-18T07:39:53.390Z,4.90
2017-11-18T07:42:20.873Z,5.10
2017-11-18T07:44:48.370Z,5.10
2017-11-18T07:47:16.039Z,5.20
2017-11-18T07:49:43.522Z,5.20
2017-11-18T07:52:11.006Z,5.20
2017-11-18T07:54:38.619Z,5.20
2017-11-18T07:57:06.374Z,5.30
2017-11-18T07:59:33.906Z,5.30
2017-11-18T08:02:01.468Z,5.30
2017-11-18T08:04:28.955Z,5.40
2017-11-18T08:06:56.485Z,5.40
2017-11-18T08:09:23.990Z,5.40
2017-11-18T08:11:51.554Z,5.40
2017-11-18T08:14:19.066Z,5.50
2017-11-18T08:16:46.669Z,5.50
2017-11-18T08:19:14.165Z,5.50
2017-11-18T08:21:41.682Z,5.50
2017-11-18T08:24:09.182Z,5.50
2017-11-18T08:26:36.724Z,5.50
2017-11-18T08:29:04.199Z,5.50
2017-11-18T08:31:31.690Z,5.50
2017-11-18T08:33:59.226Z,5.60
2017-11-18T08:36:36.461Z,5.60
2017-11-18T08:39:04.934Z,5.70
2017-11-18T08:41:32.430Z,5.70
2017-11-18T08:43:59.977Z,5.70
2017-11-18T08:46:27.493Z,5.70
2017-11-18T08:48:55.766Z,5.80
2017-11-18T08:51:23.257Z,5.80
2017-11-18T08:53:51.525Z,5.90
2017-11-18T08:56:19.021Z,5.80
2017-11-18T08:58:46.671Z,5.90
2017-11-18T09:01:14.192Z,5.90
2017-11-18T09:03:42.581Z,6.00
2017-11-18T09:06:10.812Z,6.00
2017-11-18T09:08:38.418Z,6.00
2017-11-18T09:11:06.649Z,6.00
2017-11-18T09:13:34.328Z,6.00
2017-11-18T09:16:01.819Z,6.10
2017-11-18T09:18:29.347Z,6.10
2017-11-18T09:20:56.859Z,6.10
2017-11-18T09:23:24.393Z,6.20
2017-11-18T09:25:52.046Z,6.20
2017-11-18T09:28:19.563Z,6.20
2017-11-18T09:30:47.145Z,6.30
2017-11-18T09:33:14.622Z,6.30
2017-11-18T09:35:42.110Z,5.60
2017-11-18T09:38:09.702Z,6.30
2017-11-18T09:40:37.197Z,6.20
2017-11-18T09:43:04.874Z,6.20
2017-11-18T09:45:32.374Z,6.30
2017-11-18T09:47:59.854Z,6.30
2017-11-18T09:50:27.569Z,6.30
2017-11-18T09:52:55.046Z,6.30
2017-11-18T09:55:22.598Z,6.30
2017-11-18T09:57:50.277Z,6.30
2017-11-18T10:00:17.766Z,6.30
2017-11-18T10:02:45.294Z,6.40
2017-11-18T10:05:12.824Z,6.40
2017-11-18T10:07:40.325Z,6.50
2017-11-18T10:10:08.041Z,6.50
2017-11-18T10:12:35.523Z,6.50
2017-11-18T10:15:03.033Z,6.50
2017-11-18T10:17:30.650Z,6.50
2017-11-18T10:19:58.181Z,6.50
2017-11-18T10:22:25.843Z,6.40
2017-11-18T10:24:53.506Z,6.50
2017-11-18T10:27:21.166Z,6.50
2017-11-18T10:29:48.772Z,6.60
2017-11-18T10:32:16.282Z,6.60
2017-11-18T10:34:43.769Z,6.60
2017-11-18T10:37:11.300Z,6.60
2017-11-18T10:39:38.813Z,6.50
2017-11-18T10:42:06.322Z,6.50
2017-11-18T10:44:33.903Z,6.50
2017-11-18T10:47:01.438Z,6.60
2017-11-18T10:49:28.915Z,6.60
2017-11-18T10:51:56.395Z,6.60
2017-11-18T10:54:23.909Z,6.60
2017-11-18T10:56:52.150Z,6.60
2017-11-18T10:59:19.688Z,6.50
2017-11-18T11:01:47.161Z,6.50
2017-11-18T11:04:14.666Z,6.50
2017-11-18T11:06:42.326Z,6.60
2017-11-18T11:09:10.737Z,6.60
2017-11-18T11:11:38.213Z,6.60
2017-11-18T11:14:05.702Z,6.60
2017-11-18T11:16:33.178Z,6.50
2017-11-18T11:19:00.671Z,6.60
2017-11-18T11:21:28.149Z,6.60
2017-11-18T11:23:55.650Z,6.60
2017-11-18T11:26:23.905Z,6.50
2017-11-18T11:28:51.435Z,6.50
2017-11-18T11:31:18.897Z,6.60
2017-11-18T11:33:46.591Z,6.60
2017-11-18T11:36:14.164Z,6.60
2017-11-18T11:38:41.650Z,6.70
2017-11-18T11:41:09.682Z,6.70
2017-11-18T11:43:37.173Z,6.70
2017-11-18T11:46:04.660Z,6.70
2017-11-18T11:48:32.130Z,6.80
2017-11-18T11:50:59.619Z,6.80
2017-11-18T11:53:28.063Z,6.80
2017-11-18T11:55:55.563Z,6.80
2017-11-18T11:58:23.101Z,6.80
2017-11-18T12:00:50.712Z,7.00
2017-11-18T12:03:18.342Z,7.10
2017-11-18T12:05:46.024Z,7.10
2017-11-18T12:08:13.695Z,7.20
2017-11-18T12:10:41.184Z,7.20
2017-11-18T12:13:08.670Z,7.30
2017-11-18T12:15:36.199Z,7.40
2017-11-18T12:18:03.685Z,7.40
2017-11-18T12:20:31.370Z,7.40
2017-11-18T12:22:58.868Z,7.40
2017-11-18T12:25:26.363Z,7.30
2017-11-18T12:27:53.962Z,7.40
2017-11-18T12:30:21.444Z,7.50
2017-11-18T12:32:48.934Z,7.60
2017-11-18T12:35:16.428Z,7.70
2017-11-18T12:37:44.714Z,7.70
2017-11-18T12:40:12.194Z,7.70
2017-11-18T12:42:39.685Z,7.60
2017-11-18T12:45:07.418Z,7.50
2017-11-18T12:47:34.939Z,7.40
2017-11-18T12:50:02.615Z,7.40
2017-11-18T12:52:30.861Z,7.30
2017-11-18T12:54:58.347Z,7.30
2017-11-18T12:57:25.858Z,7.20
2017-11-18T12:59:53.493Z,7.20
2017-11-18T13:02:21.122Z,7.10
2017-11-18T13:04:48.582Z,7.10
2017-11-18T13:07:16.831Z,7.10
2017-11-18T13:09:44.337Z,7.10
2017-11-18T13:12:11.831Z,7.10
2017-11-18T13:14:39.449Z,7.10
2017-11-18T13:17:07.009Z,7.10
2017-11-18T13:19:34.538Z,7.10
2017-11-18T13:22:02.071Z,7.00
2017-11-18T13:24:29.568Z,7.10
2017-11-18T13:26:57.096Z,7.10
2017-11-18T13:29:24.581Z,7.20
2017-11-18T13:31:52.062Z,7.30
2017-11-18T13:34:19.580Z,7.30
2017-11-18T13:36:47.061Z,7.30
2017-11-18T13:39:15.330Z,7.40
2017-11-18T13:41:42.813Z,7.40
2017-11-18T13:44:10.374Z,7.40
2017-11-18T13:46:37.865Z,7.40
2017-11-18T13:49:05.374Z,7.40
2017-11-18T13:51:33.789Z,7.30
2017-11-18T13:54:01.282Z,7.30
2017-11-18T13:56:28.910Z,7.30
2017-11-18T13:58:56.389Z,7.30
2017-11-18T14:01:24.002Z,7.20
2017-11-18T14:03:51.493Z,7.20
2017-11-18T14:06:18.992Z,7.20
2017-11-18T14:08:46.574Z,7.20
2017-11-18T14:11:14.064Z,7.20
2017-11-18T14:13:41.601Z,7.20
2017-11-18T14:16:09.087Z,7.10
2017-11-18T14:18:36.585Z,7.10
2017-11-18T14:21:04.077Z,7.10
2017-11-18T14:23:31.605Z,7.10
2017-11-18T14:25:59.091Z,7.00
2017-11-18T14:28:27.360Z,7.00
2017-11-18T14:30:55.642Z,7.00
2017-11-18T14:33:23.909Z,7.00
2017-11-18T14:35:52.292Z,6.90
2017-11-18T14:38:20.747Z,7.00
2017-11-18T14:40:48.225Z,6.90
2017-11-18T14:43:16.491Z,6.90
2017-11-18T14:45:44.816Z,6.90
2017-11-18T14:48:12.281Z,6.90
2017-11-18T14:50:39.770Z,6.90
2017-11-18T14:53:07.293Z,6.90
2017-11-18T14:55:34.824Z,6.90
2017-11-18T14:58:02.302Z,6.80
2017-11-18T15:00:29.777Z,6.80
2017-11-18T15:02:57.269Z,6.80
2017-11-18T15:05:24.744Z,6.80
2017-11-18T15:07:53.025Z,6.70
2017-11-18T15:10:20.510Z,6.70
2017-11-18T15:12:48.015Z,6.70
2017-11-18T15:15:21.206Z,6.60
2017-11-18T15:17:52.112Z,6.50
2017-11-18T15:20:25.305Z,6.40
2017-11-18T15:23:07.702Z,6.20
2017-11-18T15:25:40.687Z,6.00
2017-11-18T15:28:08.732Z,5.90
2017-11-18T15:30:37.557Z,5.80
2017-11-18T15:33:09.904Z,5.70
2017-11-18T15:38:39.035Z,5.80
2017-11-18T15:41:06.573Z,5.80
2017-11-18T15:43:36.206Z,5.80
2017-11-18T15:46:08.508Z,5.80
2017-11-18T15:48:41.670Z,5.80
2017-11-18T15:51:10.710Z,5.80
2017-11-18T15:53:43.787Z,5.70
2017-11-18T15:56:16.873Z,5.70
2017-11-18T15:58:48.893Z,5.70
2017-11-18T16:01:22.751Z,5.70
2017-11-18T16:04:05.120Z,5.70
2017-11-18T16:06:48.375Z,5.60
2017-11-18T16:09:15.904Z,5.60
2017-11-18T16:11:43.388Z,5.50
2017-11-18T16:14:11.010Z,5.50
2017-11-18T16:16:38.889Z,5.40
2017-11-18T16:19:06.387Z,5.30
2017-11-18T16:21:33.861Z,5.20
2017-11-18T16:24:01.398Z,5.10
2017-11-18T16:26:28.917Z,5.10
2017-11-18T16:28:57.183Z,5.00
2017-11-18T16:31:25.475Z,5.00
2017-11-18T16:33:53.201Z,5.00
2017-11-18T16:36:20.676Z,5.00
2017-11-18T16:38:48.985Z,5.00
2017-11-18T16:41:16.626Z,5.00
2017-11-18T16:43:45.040Z,5.10
2017-11-18T16:46:12.809Z,5.00
2017-11-18T16:48:40.343Z,5.00
2017-11-18T16:51:07.945Z,5.10
2017-11-18T16:53:35.694Z,5.10
2017-11-18T16:56:03.199Z,5.10
2017-11-18T16:58:30.723Z,5.20
2017-11-18T17:00:58.229Z,5.20
2017-11-18T17:03:25.755Z,5.20
2017-11-18T17:05:53.242Z,5.10
2017-11-18T17:08:21.549Z,5.00
2017-11-18T17:10:49.088Z,5.00
2017-11-18T17:13:16.595Z,5.00
2017-11-18T17:15:44.084Z,5.00
2017-11-18T17:18:11.612Z,5.00
2017-11-18T17:20:39.132Z,4.80
2017-11-18T17:23:06.607Z,4.80
2017-11-18T17:25:34.275Z,4.90
2017-11-18T17:28:01.773Z,4.90
2017-11-18T17:30:29.354Z,5.00
2017-11-18T17:32:57.739Z,5.00
2017-11-18T17:35:26.002Z,5.10
2017-11-18T17:37:53.490Z,5.10
2017-11-18T17:40:20.976Z,5.10
2017-11-18T17:42:48.514Z,5.10
2017-11-18T17:45:16.192Z,5.10
2017-11-18T17:47:43.694Z,5.10
2017-11-18T17:50:11.214Z,5.00
2017-11-18T17:52:38.768Z,5.00
2017-11-18T17:55:06.259Z,5.10
2017-11-18T17:57:33.820Z,5.10
2017-11-18T18:00:01.344Z,5.20
2017-11-18T18:02:28.857Z,5.10
2017-11-18T18:04:57.114Z,5.20
2017-11-18T18:07:24.623Z,5.30
2017-11-18T18:09:52.113Z,5.30
2017-11-18T18:12:19.687Z,5.30
2017-11-18T18:14:47.200Z,5.20
2017-11-18T18:17:14.781Z,5.30
2017-11-18T18:19:42.303Z,5.20
2017-11-18T18:22:09.786Z,5.30
2017-11-18T18:24:37.277Z,5.30
2017-11-18T18:27:04.781Z,5.20
2017-11-18T18:29:32.465Z,5.20
2017-11-18T18:32:00.005Z,5.10
2017-11-18T18:34:27.644Z,5.10
2017-11-18T18:36:55.127Z,5.10
2017-11-18T18:39:23.365Z,5.20
2017-11-18T18:41:51.095Z,5.10
2017-11-18T18:44:18.585Z,5.20
2017-11-18T18:46:46.096Z,5.30
2017-11-18T18:49:13.590Z,5.30
2017-11-18T18:51:41.200Z,5.40
2017-11-18T18:54:08.869Z,5.40
2017-11-18T18:56:36.367Z,5.30
2017-11-18T18:59:03.867Z,5.30
2017-11-18T19:01:32.114Z,5.30
2017-11-18T19:03:59.614Z,5.30
2017-11-18T19:06:28.026Z,5.30
2017-11-18T19:08:55.513Z,5.30
2017-11-18T19:11:22.997Z,5.20
2017-11-18T19:13:50.509Z,5.30
2017-11-18T19:16:17.997Z,5.30
2017-11-18T19:18:45.516Z,5.30
2017-11-18T19:21:13.157Z,5.30
2017-11-18T19:23:40.851Z,5.20
2017-11-18T19:26:08.360Z,5.30
2017-11-18T19:28:35.938Z,5.20
2017-11-18T19:31:03.628Z,5.20
2017-11-18T19:33:31.128Z,5.20
2017-11-18T19:35:58.643Z,5.20
2017-11-18T19:38:26.151Z,5.20
2017-11-18T19:40:53.666Z,5.20
2017-11-18T19:43:21.174Z,5.10
2017-11-18T19:45:49.603Z,5.10
2017-11-18T19:48:17.125Z,5.10
2017-11-18T19:50:45.386Z,5.10
2017-11-18T19:53:12.882Z,5.00
2017-11-18T19:55:40.417Z,5.00
2017-11-18T19:58:07.906Z,5.00
2017-11-18T20:00:35.533Z,5.00
2017-11-18T20:03:03.037Z,5.00
2017-11-18T20:05:30.525Z,5.00
2017-11-18T20:07:58.021Z,5.00
2017-11-18T20:10:25.516Z,5.00
2017-11-18T20:12:53.025Z,5.00
2017-11-18T20:15:21.436Z,5.00
2017-11-18T20:17:49.000Z,5.00
2017-11-18T20:20:16.524Z,4.90
2017-11-18T20:22:44.009Z,4.90
2017-11-18T20:25:11.513Z,4.90
2017-11-18T20:27:38.993Z,4.90
2017-11-18T20:30:06.493Z,4.80
2017-11-18T20:32:34.115Z,4.80
2017-11-18T20:35:01.609Z,4.90
2017-11-18T20:37:29.260Z,4.90
2017-11-18T20:39:56.993Z,4.80
2017-11-18T20:42:24.493Z,4.80
2017-11-18T20:44:52.005Z,4.80
2017-11-18T20:47:19.477Z,4.90
2017-11-18T20:49:47.786Z,5.00
2017-11-18T20:52:15.342Z,5.00
2017-11-18T20:54:43.007Z,5.00
2017-11-18T20:57:10.548Z,5.00
2017-11-18T20:59:38.817Z,5.00
2017-11-18T21:02:07.211Z,5.10
2017-11-18T21:04:35.459Z,5.10
2017-11-18T21:07:02.946Z,5.00
2017-11-18T21:09:30.459Z,5.10
2017-11-18T21:11:57.966Z,5.00
2017-11-18T21:14:25.525Z,5.00
2017-11-18T21:16:53.016Z,5.00
2017-11-18T21:19:20.526Z,5.00
2017-11-18T21:21:48.202Z,5.00
2017-11-18T21:24:16.477Z,5.00
2017-11-18T21:26:44.753Z,4.90
2017-11-18T21:29:12.310Z,4.90
2017-11-18T21:31:39.974Z,4.90
2017-11-18T21:34:07.501Z,4.90
2017-11-18T21:36:35.780Z,4.90
2017-11-18T21:39:03.272Z,4.90
2017-11-18T21:41:31.552Z,4.90
2017-11-18T21:43:59.047Z,4.90
2017-11-18T21:46:26.881Z,4.90
2017-11-18T21:48:54.369Z,4.90
2017-11-18T21:51:21.848Z,4.80
2017-11-18T21:53:49.365Z,4.80
2017-11-18T21:56:16.905Z,4.80
2017-11-18T21:58:44.418Z,4.80
2017-11-18T22:01:11.897Z,4.80
2017-11-18T22:03:39.387Z,4.90
2017-11-18T22:06:06.882Z,4.90
2017-11-18T22:08:34.373Z,4.80
2017-11-18T22:11:01.869Z,4.80
2017-11-18T22:13:29.389Z,4.80
2017-11-18T22:15:56.968Z,4.80
2017-11-18T22:18:24.666Z,4.80
2017-11-18T22:20:52.290Z,4.80
2017-11-18T22:23:20.542Z,4.80
2017-11-18T22:25:48.021Z,4.80
2017-11-18T22:28:15.525Z,4.80
2017-11-18T22:30:43.045Z,4.70
2017-11-18T22:33:11.311Z,4.80
2017-11-18T22:35:39.707Z,4.80
2017-11-18T22:38:07.206Z,4.80
2017-11-18T22:40:34.705Z,4.80
2017-11-18T22:43:02.214Z,4.70
2017-11-18T22:45:29.718Z,4.70
2017-11-18T22:47:57.991Z,4.70
2017-11-18T22:50:25.525Z,4.70
2017-11-18T22:52:53.008Z,4.70
2017-11-18T22:55:20.586Z,4.80
2017-11-18T22:57:48.841Z,4.80
2017-11-18T23:00:16.468Z,4.80
2017-11-18T23:02:43.997Z,4.80
2017-11-18T23:05:12.243Z,4.80
2017-11-18T23:07:39.838Z,4.80
2017-11-18T23:10:07.310Z,4.80
2017-11-18T23:12:34.949Z,4.80
2017-11-18T23:15:02.657Z,4.90
2017-11-18T23:17:30.158Z,4.90
2017-11-18T23:19:57.757Z,4.90
2017-11-18T23:22:25.308Z,4.90
2017-11-18T23:24:52.822Z,4.90
2017-11-18T23:27:20.407Z,4.80
2017-11-18T23:29:48.651Z,4.80
2017-11-18T23:32:16.266Z,4.80
2017-11-18T23:34:43.771Z,4.90
2017-11-18T23:37:11.294Z,4.80
2017-11-18T23:39:38.790Z,4.80
2017-11-18T23:42:06.294Z,4.90
2017-11-18T23:44:34.086Z,4.90
2017-11-18T23:47:01.597Z,4.90
2017-11-18T23:49:29.279Z,4.90
2017-11-18T23:51:56.769Z,4.90
2017-11-18T23:54:24.243Z,4.90
2017-11-18T23:56:51.779Z,5.00
2017-11-18T23:59:20.182Z,5.00
